Share

Hinkley, CA (92347)

BYRD STATION (KCAHELEN1) Elev 2477 ft | 34.74 °N, 117.35 °W | Change Station

Current weather conditions updated 0 second ago

Clear
Clear
71.3 °F
Feels Like 76 °F
N
6.0
Wind Variable Wind from South
Gusts 19.0 mph
Sunrise 6:12 AM
Sunset 7:23 PM
Moon Waning Gibbous

Today is forecast to be Much Cooler than yesterday.

Pressure 29.81 in
Visibility 10.0 miles
Clouds Clear
Heat Index 76 °F
Dew Point 35 °F
Humidity 26%
Rainfall 0.00 in
Snow Depth Not available.
UV 6 out of 16
Pollen 6.30 out of 12
Air Quality Not available.
Flu Activity Sporadic
METAR KDAG 181650Z AUTO 29004KT 10SM CLR 21/05 A2987 RMK AO2 SLP093 T02060050

More Conditions Fewer Conditions

Pressure 29.81 in
Visibility 10.0 miles
Clouds Clear
Heat Index 76 °F
Dew Point 35 °F
Humidity 26%
Rainfall 0.00 in
Snow Depth Not available.
UV 6 out of 16
Pollen 6.30 out of 12
Air Quality Not available.
Flu Activity Sporadic
METAR KDAG 181650Z AUTO 29004KT 10SM CLR 21/05 A2987 RMK AO2 SLP093 T02060050

More Conditions Fewer Conditions

10-Day Weather Forecast

Almanac

Astronomy

Apr. 18, 2014 Rise Set
Actual Time 6:12 AM PDT 7:23 PM PDT
Civil Twilight 5:46 AM PDT 7:49 PM PDT
Nautical Twilight 5:15 AM PDT 8:21 PM PDT
Astronomical Twilight 4:43 AM PDT 8:53 PM PDT
Moon 11:08 PM PDT 8:44 AM PDT
Length of Visible Light 14h 03m
Length of Day
13h 10m
Tomorrow will be 2m 3s longer.
Waning Gibbous, 87% of the Moon is Illuminated
Today
Waning Gibbous
Apr 22
Last Quarter
Apr 29
New
May 6
First Quarter
May 14
Full

Today's Extremes

State Highs State Lows

Community

  • What's for Lunch?
    What's for Lunch?
  • SUNRISE THROUGH THE TREES.
    SUNRISE THROUGH THE TREES.
  • Dog Wood Blossoms
    Dog Wood Blossoms
  • Morning Light
    Morning Light
  • New Day
    New Day

WunderPhotos

Upload Photos

1,702,433 photos uploaded!

Nearby

Air Quality

  Air Quality AQ Index Pollutant
Friday Good
PM10
Friday Good
OZONE
Friday Good
CO
Friday Good
NO2

Snow Depth

Station Depth Elevation
Virginia Lakes Ridge 19 in 9200 ft
Leavitt Lake 68 in 9400 ft
Leavitt Meadows 0 in 7200 ft
Sonora Pass 28 in 8800 ft
Summit Meadow 9 in 9122 ft

Coastal Water Temperatures

Place Temperature
No Stations Reporting

Earthquake Activity

City Distance Mag. Time & Date
Idyllwild, California 93 miles 2.8 7:37 AM PDT
2014-04-14
Malibu, California 117 miles 2.5 8:25 AM PDT
2014-04-13
Oceanside, California 138 miles 2.5 8:12 PM PDT
2014-04-12
Salton City, California 136 miles 3.2 4:53 PM PDT
2014-04-11
Minimum magnitude displayed is 2.5.

Nearby Weather Stations

Station Location Temp. Heat Index Dew Point Humidity Wind Precip. Elev Updated Type
BYRD STATION, Helendale (Silver Lakes), CA 71.3 °F 76 °F 35 °F 26% South  at  6.0 mph 0.00 in / hr 2477 ft 10:43 AM PDT Rapid Fire

Show More Stations Show Fewer Stations

What do you think?

We're not finished. Please let us know what you like, what you don't like, and what you are still missing.